sensor_id;sensor_type;location;lat;lon;timestamp;pressure;altitude;pressure_sealevel;temperature;humidity
37206;BME280;23099;42.636;23.198;2023-02-21T00:02:05;92426.47;;;2.33;79.65
37206;BME280;23099;42.636;23.198;2023-02-21T00:04:49;92423.66;;;2.30;79.42
37206;BME280;23099;42.636;23.198;2023-02-21T00:07:33;92417.97;;;2.36;79.10
37206;BME280;23099;42.636;23.198;2023-02-21T00:10:17;92420.31;;;2.38;79.00
37206;BME280;23099;42.636;23.198;2023-02-21T00:13:03;92417.00;;;2.32;78.27
37206;BME280;23099;42.636;23.198;2023-02-21T00:15:47;92417.66;;;2.16;78.60
37206;BME280;23099;42.636;23.198;2023-02-21T00:18:32;92425.00;;;2.05;80.01
37206;BME280;23099;42.636;23.198;2023-02-21T00:21:17;92430.94;;;2.10;79.46
37206;BME280;23099;42.636;23.198;2023-02-21T00:24:01;92420.69;;;2.09;80.00
37206;BME280;23099;42.636;23.198;2023-02-21T00:26:44;92416.56;;;2.17;80.20
37206;BME280;23099;42.636;23.198;2023-02-21T00:29:30;92416.25;;;2.18;79.42
37206;BME280;23099;42.636;23.198;2023-02-21T00:32:14;92407.06;;;2.29;79.23
37206;BME280;23099;42.636;23.198;2023-02-21T00:34:58;92406.56;;;2.49;78.78
37206;BME280;23099;42.636;23.198;2023-02-21T00:37:42;92401.72;;;2.43;78.37
37206;BME280;23099;42.636;23.198;2023-02-21T00:40:25;92402.66;;;2.47;78.57
37206;BME280;23099;42.636;23.198;2023-02-21T00:43:09;92394.41;;;2.40;78.22
37206;BME280;23099;42.636;23.198;2023-02-21T00:45:55;92384.47;;;2.59;77.57
37206;BME280;23099;42.636;23.198;2023-02-21T00:48:39;92390.38;;;2.65;77.39
37206;BME280;23099;42.636;23.198;2023-02-21T00:51:23;92385.16;;;2.73;77.50
37206;BME280;23099;42.636;23.198;2023-02-21T00:54:07;92378.75;;;2.66;77.86
37206;BME280;23099;42.636;23.198;2023-02-21T00:56:51;92376.41;;;2.64;77.78
37206;BME280;23099;42.636;23.198;2023-02-21T00:59:35;92365.81;;;2.56;78.07
37206;BME280;23099;42.636;23.198;2023-02-21T01:02:20;92362.94;;;2.74;76.72
37206;BME280;23099;42.636;23.198;2023-02-21T01:05:05;92364.69;;;2.79;77.48
37206;BME280;23099;42.636;23.198;2023-02-21T01:07:49;92349.50;;;2.84;77.05
37206;BME280;23099;42.636;23.198;2023-02-21T01:10:33;92349.94;;;2.78;77.50
37206;BME280;23099;42.636;23.198;2023-02-21T01:13:18;92345.63;;;2.91;76.28
37206;BME280;23099;42.636;23.198;2023-02-21T01:16:02;92333.28;;;3.08;75.97
37206;BME280;23099;42.636;23.198;2023-02-21T01:18:47;92332.19;;;3.09;76.37
37206;BME280;23099;42.636;23.198;2023-02-21T01:21:32;92320.06;;;3.08;76.20
37206;BME280;23099;42.636;23.198;2023-02-21T01:24:16;92326.44;;;3.07;76.78
37206;BME280;23099;42.636;23.198;2023-02-21T01:27:00;92318.69;;;3.02;75.26
37206;BME280;23099;42.636;23.198;2023-02-21T01:29:44;92325.72;;;3.15;74.26
37206;BME280;23099;42.636;23.198;2023-02-21T01:32:28;92317.50;;;3.26;73.50
37206;BME280;23099;42.636;23.198;2023-02-21T01:35:13;92318.59;;;3.33;74.84
37206;BME280;23099;42.636;23.198;2023-02-21T01:37:58;92316.06;;;3.19;75.41
37206;BME280;23099;42.636;23.198;2023-02-21T01:40:42;92312.50;;;3.15;76.17
37206;BME280;23099;42.636;23.198;2023-02-21T01:43:27;92311.06;;;3.09;76.24
37206;BME280;23099;42.636;23.198;2023-02-21T01:46:13;92298.34;;;3.03;75.46
37206;BME280;23099;42.636;23.198;2023-02-21T01:48:59;92290.91;;;3.22;75.06
37206;BME280;23099;42.636;23.198;2023-02-21T01:51:45;92293.44;;;3.44;73.47
37206;BME280;23099;42.636;23.198;2023-02-21T01:54:33;92296.22;;;3.39;73.33
37206;BME280;23099;42.636;23.198;2023-02-21T01:57:19;92288.16;;;3.53;74.38
37206;BME280;23099;42.636;23.198;2023-02-21T02:00:07;92269.47;;;3.32;75.08
37206;BME280;23099;42.636;23.198;2023-02-21T02:02:52;92288.78;;;3.41;73.34
37206;BME280;23099;42.636;23.198;2023-02-21T02:05:40;92285.53;;;3.53;74.46
37206;BME280;23099;42.636;23.198;2023-02-21T02:08:29;92277.28;;;3.63;72.18
37206;BME280;23099;42.636;23.198;2023-02-21T02:11:22;92274.66;;;3.72;73.93
37206;BME280;23099;42.636;23.198;2023-02-21T02:14:21;92274.66;;;3.63;73.93
37206;BME280;23099;42.636;23.198;2023-02-21T02:16:55;92268.56;;;3.63;74.67
37206;BME280;23099;42.636;23.198;2023-02-21T02:19:46;92261.88;;;3.31;74.83
37206;BME280;23099;42.636;23.198;2023-02-21T02:22:56;92259.56;;;3.46;75.00
37206;BME280;23099;42.636;23.198;2023-02-21T02:25:49;92260.19;;;3.43;73.86
37206;BME280;23099;42.636;23.198;2023-02-21T02:28:49;92264.22;;;3.49;73.86
37206;BME280;23099;42.636;23.198;2023-02-21T02:31:27;92260.50;;;3.68;72.58
37206;BME280;23099;42.636;23.198;2023-02-21T02:37:16;92256.44;;;3.96;72.54
37206;BME280;23099;42.636;23.198;2023-02-21T02:39:48;92252.09;;;3.91;72.84
37206;BME280;23099;42.636;23.198;2023-02-21T02:42:27;92254.59;;;3.88;72.97
37206;BME280;23099;42.636;23.198;2023-02-21T02:44:59;92255.19;;;3.94;72.02
37206;BME280;23099;42.636;23.198;2023-02-21T02:47:33;92253.66;;;4.01;70.71
37206;BME280;23099;42.636;23.198;2023-02-21T02:50:02;92253.94;;;4.17;69.21
37206;BME280;23099;42.636;23.198;2023-02-21T02:52:33;92247.69;;;4.30;69.80
37206;BME280;23099;42.636;23.198;2023-02-21T02:55:03;92260.56;;;4.40;68.96
37206;BME280;23099;42.636;23.198;2023-02-21T02:57:32;92261.34;;;4.41;70.20
37206;BME280;23099;42.636;23.198;2023-02-21T03:00:06;92266.97;;;4.39;69.14
37206;BME280;23099;42.636;23.198;2023-02-21T03:02:55;92263.22;;;4.40;69.40
37206;BME280;23099;42.636;23.198;2023-02-21T03:05:39;92255.13;;;4.37;69.34
37206;BME280;23099;42.636;23.198;2023-02-21T03:08:18;92263.22;;;4.40;70.21
37206;BME280;23099;42.636;23.198;2023-02-21T03:10:53;92252.66;;;4.32;68.88
37206;BME280;23099;42.636;23.198;2023-02-21T03:13:31;92253.75;;;4.31;68.89
37206;BME280;23099;42.636;23.198;2023-02-21T03:16:05;92258.28;;;4.30;67.96
37206;BME280;23099;42.636;23.198;2023-02-21T03:18:38;92258.59;;;4.29;68.53
37206;BME280;23099;42.636;23.198;2023-02-21T03:21:10;92258.28;;;4.30;68.75
37206;BME280;23099;42.636;23.198;2023-02-21T03:23:41;92250.81;;;4.32;69.04
37206;BME280;23099;42.636;23.198;2023-02-21T03:26:11;92256.41;;;4.31;69.02
37206;BME280;23099;42.636;23.198;2023-02-21T03:28:40;92246.44;;;4.19;68.32
37206;BME280;23099;42.636;23.198;2023-02-21T03:31:08;92247.22;;;4.28;69.77
37206;BME280;23099;42.636;23.198;2023-02-21T03:33:36;92263.56;;;4.21;69.40
37206;BME280;23099;42.636;23.198;2023-02-21T03:36:05;92253.47;;;4.15;69.22
37206;BME280;23099;42.636;23.198;2023-02-21T03:38:32;92254.13;;;4.03;69.51
37206;BME280;23099;42.636;23.198;2023-02-21T03:41:00;92258.78;;;3.98;69.98
37206;BME280;23099;42.636;23.198;2023-02-21T03:43:27;92249.75;;;3.99;69.30
37206;BME280;23099;42.636;23.198;2023-02-21T03:45:53;92253.66;;;4.01;69.45
37206;BME280;23099;42.636;23.198;2023-02-21T03:48:20;92258.63;;;4.03;69.90
37206;BME280;23099;42.636;23.198;2023-02-21T03:50:48;92252.25;;;4.04;68.94
37206;BME280;23099;42.636;23.198;2023-02-21T03:53:14;92259.56;;;3.98;69.29
37206;BME280;23099;42.636;23.198;2023-02-21T03:55:41;92260.66;;;3.97;69.49
37206;BME280;23099;42.636;23.198;2023-02-21T03:58:09;92266.69;;;4.06;69.29
37206;BME280;23099;42.636;23.198;2023-02-21T04:00:36;92269.81;;;4.08;68.87
37206;BME280;23099;42.636;23.198;2023-02-21T04:03:02;92270.91;;;4.16;68.26
37206;BME280;23099;42.636;23.198;2023-02-21T04:05:29;92265.75;;;4.19;67.76
37206;BME280;23099;42.636;23.198;2023-02-21T04:07:56;92259.81;;;4.22;68.09
37206;BME280;23099;42.636;23.198;2023-02-21T04:10:22;92265.75;;;4.28;68.25
37206;BME280;23099;42.636;23.198;2023-02-21T04:12:49;92261.84;;;4.25;67.49
37206;BME280;23099;42.636;23.198;2023-02-21T04:15:17;92267.16;;;4.25;67.26
37206;BME280;23099;42.636;23.198;2023-02-21T04:17:44;92264.50;;;4.25;67.86
37206;BME280;23099;42.636;23.198;2023-02-21T04:20:10;92264.81;;;4.24;68.68
37206;BME280;23099;42.636;23.198;2023-02-21T04:22:37;92275.22;;;4.20;67.76
37206;BME280;23099;42.636;23.198;2023-02-21T04:25:06;92284.41;;;4.23;67.55
37206;BME280;23099;42.636;23.198;2023-02-21T04:27:33;92284.25;;;4.28;66.63
37206;BME280;23099;42.636;23.198;2023-02-21T04:30:00;92296.56;;;4.33;67.54
37206;BME280;23099;42.636;23.198;2023-02-21T04:32:28;92292.69;;;4.13;69.03
37206;BME280;23099;42.636;23.198;2023-02-21T04:34:55;92293.16;;;4.06;68.27
37206;BME280;23099;42.636;23.198;2023-02-21T04:37:21;92304.50;;;4.07;69.29
37206;BME280;23099;42.636;23.198;2023-02-21T04:39:48;92296.75;;;3.84;70.18
37206;BME280;23099;42.636;23.198;2023-02-21T04:42:15;92301.41;;;3.87;69.92
37206;BME280;23099;42.636;23.198;2023-02-21T04:44:41;92286.94;;;3.76;68.72
37206;BME280;23099;42.636;23.198;2023-02-21T04:47:08;92304.84;;;3.88;69.15
37206;BME280;23099;42.636;23.198;2023-02-21T04:49:37;92300.00;;;3.64;70.80
37206;BME280;23099;42.636;23.198;2023-02-21T04:52:03;92296.72;;;3.67;70.47
37206;BME280;23099;42.636;23.198;2023-02-21T04:54:30;92289.09;;;3.66;70.47
37206;BME280;23099;42.636;23.198;2023-02-21T04:56:57;92303.72;;;3.63;71.60
37206;BME280;23099;42.636;23.198;2023-02-21T04:59:24;92293.75;;;3.43;71.52
37206;BME280;23099;42.636;23.198;2023-02-21T05:01:51;92299.94;;;3.30;71.63
37206;BME280;23099;42.636;23.198;2023-02-21T05:04:18;92299.31;;;3.24;73.37
37206;BME280;23099;42.636;23.198;2023-02-21T05:06:46;92282.78;;;3.01;73.89
37206;BME280;23099;42.636;23.198;2023-02-21T05:09:13;92290.84;;;3.05;73.80
37206;BME280;23099;42.636;23.198;2023-02-21T05:11:39;92281.50;;;2.90;74.41
37206;BME280;23099;42.636;23.198;2023-02-21T05:14:06;92284.00;;;2.87;74.38
37206;BME280;23099;42.636;23.198;2023-02-21T05:16:33;92280.28;;;2.88;75.13
37206;BME280;23099;42.636;23.198;2023-02-21T05:19:00;92271.81;;;2.77;74.45
37206;BME280;23099;42.636;23.198;2023-02-21T05:21:27;92280.41;;;2.91;75.01
37206;BME280;23099;42.636;23.198;2023-02-21T05:23:55;92273.56;;;2.81;74.60
37206;BME280;23099;42.636;23.198;2023-02-21T05:26:23;92258.03;;;2.89;73.99
37206;BME280;23099;42.636;23.198;2023-02-21T05:28:50;92259.81;;;3.02;73.59
37206;BME280;23099;42.636;23.198;2023-02-21T05:31:18;92258.25;;;3.09;73.58
37206;BME280;23099;42.636;23.198;2023-02-21T05:33:45;92251.75;;;3.15;73.46
37206;BME280;23099;42.636;23.198;2023-02-21T05:36:12;92252.69;;;3.19;72.79
37206;BME280;23099;42.636;23.198;2023-02-21T05:38:47;92257.38;;;3.31;72.46
37206;BME280;23099;42.636;23.198;2023-02-21T05:41:15;92260.03;;;3.31;71.86
37206;BME280;23099;42.636;23.198;2023-02-21T05:43:43;92264.84;;;3.38;71.44
37206;BME280;23099;42.636;23.198;2023-02-21T05:46:21;92272.00;;;3.54;70.80
37206;BME280;23099;42.636;23.198;2023-02-21T05:48:48;92265.03;;;3.59;70.32
37206;BME280;23099;42.636;23.198;2023-02-21T05:51:16;92274.50;;;3.68;71.47
37206;BME280;23099;42.636;23.198;2023-02-21T05:53:43;92275.44;;;3.55;70.97
37206;BME280;23099;42.636;23.198;2023-02-21T05:56:10;92285.84;;;3.60;71.58
37206;BME280;23099;42.636;23.198;2023-02-21T05:58:38;92284.59;;;3.58;72.07
37206;BME280;23099;42.636;23.198;2023-02-21T06:01:05;92287.09;;;3.63;72.12
37206;BME280;23099;42.636;23.198;2023-02-21T06:03:32;92296.25;;;3.65;71.74
37206;BME280;23099;42.636;23.198;2023-02-21T06:05:59;92293.28;;;3.49;72.04
37206;BME280;23099;42.636;23.198;2023-02-21T06:08:26;92295.47;;;3.56;72.63
37206;BME280;23099;42.636;23.198;2023-02-21T06:10:53;92291.16;;;3.60;71.50
37206;BME280;23099;42.636;23.198;2023-02-21T06:13:19;92287.56;;;3.56;71.84
37206;BME280;23099;42.636;23.198;2023-02-21T06:15:48;92301.53;;;3.65;72.57
37206;BME280;23099;42.636;23.198;2023-02-21T06:18:15;92297.22;;;3.61;72.57
37206;BME280;23099;42.636;23.198;2023-02-21T06:20:42;92296.28;;;3.74;73.23
37206;BME280;23099;42.636;23.198;2023-02-21T06:23:09;92294.06;;;3.76;72.59
37206;BME280;23099;42.636;23.198;2023-02-21T06:25:36;92289.28;;;3.86;70.94
37206;BME280;23099;42.636;23.198;2023-02-21T06:28:03;92305.44;;;3.94;71.95
37206;BME280;23099;42.636;23.198;2023-02-21T06:30:30;92304.66;;;3.93;71.42
37206;BME280;23099;42.636;23.198;2023-02-21T06:32:58;92301.41;;;3.96;71.52
37206;BME280;23099;42.636;23.198;2023-02-21T06:35:25;92314.31;;;4.06;71.41
37206;BME280;23099;42.636;23.198;2023-02-21T06:37:51;92314.94;;;4.12;71.03
37206;BME280;23099;42.636;23.198;2023-02-21T06:40:18;92313.38;;;4.11;70.52
37206;BME280;23099;42.636;23.198;2023-02-21T06:42:45;92296.56;;;4.24;71.18
37206;BME280;23099;42.636;23.198;2023-02-21T06:45:11;92311.63;;;4.41;68.70
37206;BME280;23099;42.636;23.198;2023-02-21T06:47:38;92308.03;;;4.54;69.38
37206;BME280;23099;42.636;23.198;2023-02-21T06:50:07;92304.41;;;4.67;69.72
37206;BME280;23099;42.636;23.198;2023-02-21T06:52:33;92301.88;;;4.79;67.58
37206;BME280;23099;42.636;23.198;2023-02-21T06:55:00;92302.91;;;4.95;67.62
37206;BME280;23099;42.636;23.198;2023-02-21T07:13:48;92298.81;;;6.49;60.05
37206;BME280;23099;42.636;23.198;2023-02-21T07:16:15;92301.88;;;6.51;59.40
37206;BME280;23099;42.636;23.198;2023-02-21T07:18:43;92302.75;;;6.43;60.12
37206;BME280;23099;42.636;23.198;2023-02-21T07:21:10;92298.53;;;6.42;59.89
37206;BME280;23099;42.636;23.198;2023-02-21T07:23:36;92297.56;;;6.46;59.57
37206;BME280;23099;42.636;23.198;2023-02-21T07:26:03;92296.34;;;6.44;61.59
37206;BME280;23099;42.636;23.198;2023-02-21T07:28:30;92302.09;;;6.46;62.24
37206;BME280;23099;42.636;23.198;2023-02-21T07:30:58;92299.94;;;6.60;58.70
37206;BME280;23099;42.636;23.198;2023-02-21T07:33:25;92297.09;;;6.77;58.75
37206;BME280;23099;42.636;23.198;2023-02-21T07:35:51;92291.50;;;6.91;60.20
37206;BME280;23099;42.636;23.198;2023-02-21T07:38:19;92291.16;;;6.92;59.21
37206;BME280;23099;42.636;23.198;2023-02-21T07:40:46;92287.38;;;6.93;58.56
37206;BME280;23099;42.636;23.198;2023-02-21T07:43:12;92286.72;;;6.96;58.14
37206;BME280;23099;42.636;23.198;2023-02-21T07:45:39;92280.94;;;6.94;58.50
37206;BME280;23099;42.636;23.198;2023-02-21T07:48:07;92281.63;;;6.91;58.64
37206;BME280;23099;42.636;23.198;2023-02-21T07:50:34;92278.53;;;6.89;58.27
37206;BME280;23099;42.636;23.198;2023-02-21T08:10:22;92259.88;;;7.74;55.63
37206;BME280;23099;42.636;23.198;2023-02-21T08:12:49;92262.31;;;7.79;55.21
37206;BME280;23099;42.636;23.198;2023-02-21T08:15:16;92257.81;;;7.96;54.67
37206;BME280;23099;42.636;23.198;2023-02-21T08:17:43;92262.38;;;8.07;53.97
37206;BME280;23099;42.636;23.198;2023-02-21T08:20:10;92272.09;;;8.15;53.72
37206;BME280;23099;42.636;23.198;2023-02-21T08:22:36;92264.38;;;8.26;53.22
37206;BME280;23099;42.636;23.198;2023-02-21T08:25:03;92269.59;;;8.35;53.08
37206;BME280;23099;42.636;23.198;2023-02-21T08:27:32;92260.88;;;8.50;52.40
37206;BME280;23099;42.636;23.198;2023-02-21T08:29:58;92251.97;;;8.58;52.68
37206;BME280;23099;42.636;23.198;2023-02-21T08:32:25;92242.25;;;8.66;52.68
37206;BME280;23099;42.636;23.198;2023-02-21T08:34:52;92231.00;;;8.72;50.68
37206;BME280;23099;42.636;23.198;2023-02-21T08:37:18;92236.34;;;8.88;49.47
37206;BME280;23099;42.636;23.198;2023-02-21T08:39:45;92224.72;;;8.96;50.27
37206;BME280;23099;42.636;23.198;2023-02-21T08:42:12;92245.03;;;9.16;47.76
37206;BME280;23099;42.636;23.198;2023-02-21T08:44:43;92231.06;;;9.39;47.55
37206;BME280;23099;42.636;23.198;2023-02-21T08:47:10;92240.28;;;9.76;44.86
37206;BME280;23099;42.636;23.198;2023-02-21T08:49:37;92225.28;;;10.07;43.69
37206;BME280;23099;42.636;23.198;2023-02-21T08:52:05;92241.22;;;10.38;42.37
37206;BME280;23099;42.636;23.198;2023-02-21T08:54:32;92238.66;;;10.87;42.52
37206;BME280;23099;42.636;23.198;2023-02-21T08:56:59;92216.31;;;11.22;39.79
37206;BME280;23099;42.636;23.198;2023-02-21T08:59:26;92215.41;;;11.37;40.27
37206;BME280;23099;42.636;23.198;2023-02-21T09:01:56;92214.16;;;11.57;40.72
37206;BME280;23099;42.636;23.198;2023-02-21T09:04:23;92217.28;;;11.86;39.68
37206;BME280;23099;42.636;23.198;2023-02-21T09:06:52;92215.91;;;12.29;41.35
37206;BME280;23099;42.636;23.198;2023-02-21T09:09:19;92219.25;;;12.52;37.96
37206;BME280;23099;42.636;23.198;2023-02-21T09:11:46;92207.84;;;12.62;37.05
37206;BME280;23099;42.636;23.198;2023-02-21T09:14:14;92205.38;;;12.80;37.13
37206;BME280;23099;42.636;23.198;2023-02-21T09:16:41;92202.50;;;13.03;37.03
37206;BME280;23099;42.636;23.198;2023-02-21T09:19:10;92208.50;;;13.26;36.87
37206;BME280;23099;42.636;23.198;2023-02-21T09:21:37;92204.41;;;13.47;34.91
37206;BME280;23099;42.636;23.198;2023-02-21T09:24:09;92207.56;;;13.59;35.39
37206;BME280;23099;42.636;23.198;2023-02-21T09:26:36;92211.56;;;13.79;36.34
37206;BME280;23099;42.636;23.198;2023-02-21T09:29:03;92197.53;;;14.11;36.27
37206;BME280;23099;42.636;23.198;2023-02-21T09:31:30;92195.63;;;14.19;33.77
37206;BME280;23099;42.636;23.198;2023-02-21T09:33:59;92194.56;;;14.37;34.17
37206;BME280;23099;42.636;23.198;2023-02-21T09:36:27;92200.44;;;14.61;34.38
37206;BME280;23099;42.636;23.198;2023-02-21T09:38:54;92191.97;;;14.55;34.31
37206;BME280;23099;42.636;23.198;2023-02-21T09:41:21;92183.94;;;14.69;33.65
37206;BME280;23099;42.636;23.198;2023-02-21T09:43:50;92192.34;;;14.61;33.27
37206;BME280;23099;42.636;23.198;2023-02-21T09:46:26;92195.09;;;14.71;33.71
37206;BME280;23099;42.636;23.198;2023-02-21T09:48:55;92193.16;;;14.68;33.50
37206;BME280;23099;42.636;23.198;2023-02-21T09:51:22;92184.69;;;14.73;32.52
37206;BME280;23099;42.636;23.198;2023-02-21T09:53:53;92195.09;;;14.71;33.31
37206;BME280;23099;42.636;23.198;2023-02-21T09:56:26;92183.19;;;14.86;33.12
37206;BME280;23099;42.636;23.198;2023-02-21T09:58:54;92166.63;;;14.74;32.21
37206;BME280;23099;42.636;23.198;2023-02-21T10:01:27;92182.81;;;14.88;32.77
37206;BME280;23099;42.636;23.198;2023-02-21T10:04:03;92169.00;;;15.07;33.64
37206;BME280;23099;42.636;23.198;2023-02-21T10:06:38;92173.25;;;15.40;32.66
37206;BME280;23099;42.636;23.198;2023-02-21T10:09:20;92164.03;;;15.55;31.82
37206;BME280;23099;42.636;23.198;2023-02-21T10:11:57;92164.00;;;15.70;30.71
37206;BME280;23099;42.636;23.198;2023-02-21T10:14:29;92155.91;;;15.84;30.60
37206;BME280;23099;42.636;23.198;2023-02-21T10:17:04;92140.88;;;15.83;30.26
37206;BME280;23099;42.636;23.198;2023-02-21T10:19:39;92144.31;;;16.01;30.55
37206;BME280;23099;42.636;23.198;2023-02-21T10:22:12;92136.91;;;16.16;30.79
37206;BME280;23099;42.636;23.198;2023-02-21T10:24:41;92145.03;;;16.05;30.03
37206;BME280;23099;42.636;23.198;2023-02-21T10:27:14;92149.66;;;16.15;29.26
37206;BME280;23099;42.636;23.198;2023-02-21T10:29:45;92130.78;;;16.12;29.10
37206;BME280;23099;42.636;23.198;2023-02-21T10:32:15;92133.69;;;16.53;29.64
37206;BME280;23099;42.636;23.198;2023-02-21T10:34:44;92132.91;;;16.52;28.24
37206;BME280;23099;42.636;23.198;2023-02-21T10:37:27;92120.72;;;16.96;28.74
37206;BME280;23099;42.636;23.198;2023-02-21T10:40:02;92124.31;;;17.30;27.38
37206;BME280;23099;42.636;23.198;2023-02-21T10:42:38;92127.31;;;17.43;28.66
37206;BME280;23099;42.636;23.198;2023-02-21T10:45:10;92115.63;;;17.53;27.61
37206;BME280;23099;42.636;23.198;2023-02-21T10:47:47;92116.38;;;17.95;27.59
37206;BME280;23099;42.636;23.198;2023-02-21T10:50:38;92104.00;;;17.97;25.94
37206;BME280;23099;42.636;23.198;2023-02-21T10:53:07;92098.50;;;17.71;25.23
37206;BME280;23099;42.636;23.198;2023-02-21T10:55:35;92090.38;;;17.71;26.16
37206;BME280;23099;42.636;23.198;2023-02-21T10:58:07;92092.19;;;17.40;25.90
37206;BME280;23099;42.636;23.198;2023-02-21T11:00:36;92092.09;;;17.50;26.81
37206;BME280;23099;42.636;23.198;2023-02-21T11:03:05;92071.63;;;17.49;25.72
37206;BME280;23099;42.636;23.198;2023-02-21T11:05:34;92081.28;;;17.50;25.16
37206;BME280;23099;42.636;23.198;2023-02-21T11:08:05;92071.06;;;18.06;26.27
37206;BME280;23099;42.636;23.198;2023-02-21T11:10:36;92073.16;;;18.25;25.11
37206;BME280;23099;42.636;23.198;2023-02-21T11:13:13;92069.50;;;18.05;25.46
37206;BME280;23099;42.636;23.198;2023-02-21T11:15:41;92064.56;;;17.62;25.65
37206;BME280;23099;42.636;23.198;2023-02-21T11:18:14;92065.78;;;17.95;27.02
37206;BME280;23099;42.636;23.198;2023-02-21T11:20:42;92063.34;;;17.71;25.85
37206;BME280;23099;42.636;23.198;2023-02-21T11:23:27;92063.16;;;18.19;25.01
37206;BME280;23099;42.636;23.198;2023-02-21T11:25:59;92046.22;;;18.15;25.76
37206;BME280;23099;42.636;23.198;2023-02-21T11:28:36;92050.38;;;18.50;26.20
37206;BME280;23099;42.636;23.198;2023-02-21T11:31:07;92038.56;;;18.67;26.85
37206;BME280;23099;42.636;23.198;2023-02-21T11:33:39;92038.00;;;18.52;25.92
37206;BME280;23099;42.636;23.198;2023-02-21T11:36:11;92033.75;;;18.51;26.21
37206;BME280;23099;42.636;23.198;2023-02-21T11:38:40;92031.34;;;18.57;25.01
37206;BME280;23099;42.636;23.198;2023-02-21T11:41:22;92020.97;;;18.52;24.92
37206;BME280;23099;42.636;23.198;2023-02-21T11:43:50;92017.56;;;18.48;25.31
37206;BME280;23099;42.636;23.198;2023-02-21T11:46:24;92017.03;;;18.60;26.47
37206;BME280;23099;42.636;23.198;2023-02-21T11:49:01;92018.06;;;18.39;24.73
37206;BME280;23099;42.636;23.198;2023-02-21T11:51:33;92008.75;;;18.70;25.76
37206;BME280;23099;42.636;23.198;2023-02-21T11:54:04;92006.00;;;18.74;25.47
37206;BME280;23099;42.636;23.198;2023-02-21T11:56:37;91992.88;;;18.96;25.00
37206;BME280;23099;42.636;23.198;2023-02-21T11:59:15;91998.41;;;18.89;24.95
37206;BME280;23099;42.636;23.198;2023-02-21T12:01:52;91996.34;;;18.96;24.82
37206;BME280;23099;42.636;23.198;2023-02-21T12:04:32;91990.31;;;18.62;24.42
37206;BME280;23099;42.636;23.198;2023-02-21T12:07:10;91991.03;;;17.78;26.09
37206;BME280;23099;42.636;23.198;2023-02-21T12:09:42;91995.44;;;17.31;26.77
37206;BME280;23099;42.636;23.198;2023-02-21T12:12:25;91991.03;;;17.03;27.61
37206;BME280;23099;42.636;23.198;2023-02-21T12:15:03;91995.34;;;16.97;27.86
37206;BME280;23099;42.636;23.198;2023-02-21T12:17:47;91987.56;;;17.06;27.91
37206;BME280;23099;42.636;23.198;2023-02-21T12:20:31;91985.25;;;17.05;28.21
37206;BME280;23099;42.636;23.198;2023-02-21T12:23:13;91971.50;;;16.88;28.05
37206;BME280;23099;42.636;23.198;2023-02-21T12:26:07;91974.03;;;17.10;28.32
37206;BME280;23099;42.636;23.198;2023-02-21T12:28:52;91964.28;;;17.19;27.57
37206;BME280;23099;42.636;23.198;2023-02-21T12:31:35;91974.13;;;16.99;28.20
37206;BME280;23099;42.636;23.198;2023-02-21T12:34:18;91970.44;;;16.82;28.33
37206;BME280;23099;42.636;23.198;2023-02-21T12:36:58;91965.94;;;16.65;28.58
37206;BME280;23099;42.636;23.198;2023-02-21T12:39:45;91965.25;;;16.54;28.26
37206;BME280;23099;42.636;23.198;2023-02-21T12:42:27;91963.72;;;16.49;28.96
37206;BME280;23099;42.636;23.198;2023-02-21T12:45:15;91957.13;;;16.57;29.14
37206;BME280;23099;42.636;23.198;2023-02-21T12:47:50;91956.72;;;16.63;29.22
37206;BME280;23099;42.636;23.198;2023-02-21T12:50:21;91953.50;;;16.75;29.05
37206;BME280;23099;42.636;23.198;2023-02-21T12:52:54;91955.50;;;17.08;28.99
37206;BME280;23099;42.636;23.198;2023-02-21T12:55:30;91951.47;;;17.27;27.83
37206;BME280;23099;42.636;23.198;2023-02-21T12:58:02;91940.16;;;17.36;27.37
37206;BME280;23099;42.636;23.198;2023-02-21T13:00:35;91940.00;;;17.50;27.22
37206;BME280;23099;42.636;23.198;2023-02-21T13:03:11;91927.22;;;17.54;26.95
37206;BME280;23099;42.636;23.198;2023-02-21T13:05:45;91931.94;;;17.80;27.61
37206;BME280;23099;42.636;23.198;2023-02-21T13:08:15;91923.34;;;17.89;26.02
37206;BME280;23099;42.636;23.198;2023-02-21T13:10:51;91926.38;;;17.91;27.08
37206;BME280;23099;42.636;23.198;2023-02-21T13:13:21;91927.00;;;18.02;27.02
37206;BME280;23099;42.636;23.198;2023-02-21T13:15:50;91924.97;;;18.10;26.29
37206;BME280;23099;42.636;23.198;2023-02-21T13:18:20;91913.75;;;18.34;26.15
37206;BME280;23099;42.636;23.198;2023-02-21T13:20:53;91912.16;;;18.64;25.87
37206;BME280;23099;42.636;23.198;2023-02-21T13:23:22;91901.50;;;18.77;25.46
37206;BME280;23099;42.636;23.198;2023-02-21T13:26:20;91894.78;;;18.61;24.68
37206;BME280;23099;42.636;23.198;2023-02-21T13:28:51;91892.53;;;18.33;25.16
37206;BME280;23099;42.636;23.198;2023-02-21T13:31:22;91910.59;;;18.16;25.27
37206;BME280;23099;42.636;23.198;2023-02-21T13:33:51;91890.25;;;18.05;24.63
37206;BME280;23099;42.636;23.198;2023-02-21T13:36:25;91895.00;;;18.24;25.26
37206;BME280;23099;42.636;23.198;2023-02-21T13:39:01;91888.91;;;18.43;25.91
37206;BME280;23099;42.636;23.198;2023-02-21T13:41:33;91882.94;;;18.52;25.31
37206;BME280;23099;42.636;23.198;2023-02-21T13:44:05;91887.81;;;18.37;24.88
37206;BME280;23099;42.636;23.198;2023-02-21T13:47:01;91882.34;;;18.17;26.70
37206;BME280;23099;42.636;23.198;2023-02-21T13:49:40;91882.56;;;18.03;26.54
37206;BME280;23099;42.636;23.198;2023-02-21T13:52:25;91870.28;;;17.98;25.40
37206;BME280;23099;42.636;23.198;2023-02-21T13:55:19;91878.75;;;18.00;25.81
37206;BME280;23099;42.636;23.198;2023-02-21T13:57:47;91872.09;;;17.78;25.81
37206;BME280;23099;42.636;23.198;2023-02-21T14:00:46;91869.31;;;17.85;26.27
37206;BME280;23099;42.636;23.198;2023-02-21T14:03:31;91875.38;;;17.93;26.02
37206;BME280;23099;42.636;23.198;2023-02-21T14:06:30;91872.81;;;17.82;26.31